sensor_id;sensor_type;location;lat;lon;timestamp;P1;durP1;ratioP1;P2;durP2;ratioP2
40501;SDS011;29631;49.168;9.848;2023-04-15T00:00:41;3.25;;;2.95;;
40501;SDS011;29631;49.168;9.848;2023-04-15T00:03:07;3.15;;;3.00;;
40501;SDS011;29631;49.168;9.848;2023-04-15T00:05:33;2.95;;;2.85;;
40501;SDS011;29631;49.168;9.848;2023-04-15T00:07:59;3.30;;;3.10;;
40501;SDS011;29631;49.168;9.848;2023-04-15T00:10:25;3.63;;;3.33;;
40501;SDS011;29631;49.168;9.848;2023-04-15T00:12:51;3.28;;;3.08;;
40501;SDS011;29631;49.168;9.848;2023-04-15T00:15:17;3.03;;;2.83;;
40501;SDS011;29631;49.168;9.848;2023-04-15T00:17:43;2.80;;;2.60;;
40501;SDS011;29631;49.168;9.848;2023-04-15T00:20:10;2.80;;;2.65;;
40501;SDS011;29631;49.168;9.848;2023-04-15T00:22:36;3.20;;;3.03;;
40501;SDS011;29631;49.168;9.848;2023-04-15T00:25:01;3.30;;;3.10;;
40501;SDS011;29631;49.168;9.848;2023-04-15T00:27:27;3.25;;;3.05;;
40501;SDS011;29631;49.168;9.848;2023-04-15T00:29:53;3.08;;;2.83;;
40501;SDS011;29631;49.168;9.848;2023-04-15T00:32:20;3.33;;;3.03;;
40501;SDS011;29631;49.168;9.848;2023-04-15T00:34:46;3.88;;;3.05;;
40501;SDS011;29631;49.168;9.848;2023-04-15T00:37:11;3.63;;;3.42;;
40501;SDS011;29631;49.168;9.848;2023-04-15T00:39:37;3.78;;;3.50;;
40501;SDS011;29631;49.168;9.848;2023-04-15T00:42:03;5.10;;;3.25;;
40501;SDS011;29631;49.168;9.848;2023-04-15T00:44:29;4.13;;;3.60;;
40501;SDS011;29631;49.168;9.848;2023-04-15T00:46:55;3.67;;;3.38;;
40501;SDS011;29631;49.168;9.848;2023-04-15T00:49:21;3.65;;;3.38;;
40501;SDS011;29631;49.168;9.848;2023-04-15T00:51:47;3.88;;;3.58;;
40501;SDS011;29631;49.168;9.848;2023-04-15T00:54:13;4.10;;;3.70;;
40501;SDS011;29631;49.168;9.848;2023-04-15T00:56:40;3.22;;;3.03;;
40501;SDS011;29631;49.168;9.848;2023-04-15T00:59:06;3.67;;;3.40;;
40501;SDS011;29631;49.168;9.848;2023-04-15T01:01:36;3.70;;;3.40;;
40501;SDS011;29631;49.168;9.848;2023-04-15T01:04:02;3.78;;;3.33;;
40501;SDS011;29631;49.168;9.848;2023-04-15T01:06:29;3.30;;;3.10;;
40501;SDS011;29631;49.168;9.848;2023-04-15T01:08:56;3.70;;;2.70;;
40501;SDS011;29631;49.168;9.848;2023-04-15T01:11:24;2.90;;;2.75;;
40501;SDS011;29631;49.168;9.848;2023-04-15T01:13:51;3.70;;;3.22;;
40501;SDS011;29631;49.168;9.848;2023-04-15T01:16:17;3.15;;;2.95;;
40501;SDS011;29631;49.168;9.848;2023-04-15T01:18:44;3.28;;;2.97;;
40501;SDS011;29631;49.168;9.848;2023-04-15T01:21:10;3.22;;;3.03;;
40501;SDS011;29631;49.168;9.848;2023-04-15T01:23:36;3.38;;;3.05;;
40501;SDS011;29631;49.168;9.848;2023-04-15T01:26:03;3.28;;;2.97;;
40501;SDS011;29631;49.168;9.848;2023-04-15T01:28:31;2.80;;;2.70;;
40501;SDS011;29631;49.168;9.848;2023-04-15T01:33:33;3.33;;;2.72;;
40501;SDS011;29631;49.168;9.848;2023-04-15T01:35:58;3.20;;;3.00;;
40501;SDS011;29631;49.168;9.848;2023-04-15T01:38:25;3.97;;;2.70;;
40501;SDS011;29631;49.168;9.848;2023-04-15T01:40:52;3.58;;;3.38;;
40501;SDS011;29631;49.168;9.848;2023-04-15T01:43:17;3.95;;;3.28;;
40501;SDS011;29631;49.168;9.848;2023-04-15T01:45:43;3.38;;;3.08;;
40501;SDS011;29631;49.168;9.848;2023-04-15T01:48:09;4.30;;;3.05;;
40501;SDS011;29631;49.168;9.848;2023-04-15T01:50:36;3.17;;;2.92;;
40501;SDS011;29631;49.168;9.848;2023-04-15T01:53:02;3.22;;;3.03;;
40501;SDS011;29631;49.168;9.848;2023-04-15T01:55:28;2.85;;;2.65;;
40501;SDS011;29631;49.168;9.848;2023-04-15T01:57:54;3.03;;;2.80;;
40501;SDS011;29631;49.168;9.848;2023-04-15T02:00:20;2.40;;;2.20;;
40501;SDS011;29631;49.168;9.848;2023-04-15T02:02:47;3.08;;;2.88;;
40501;SDS011;29631;49.168;9.848;2023-04-15T02:05:13;3.05;;;2.83;;
40501;SDS011;29631;49.168;9.848;2023-04-15T02:07:40;2.88;;;2.72;;
40501;SDS011;29631;49.168;9.848;2023-04-15T02:10:07;2.78;;;2.67;;
40501;SDS011;29631;49.168;9.848;2023-04-15T02:12:34;3.00;;;2.80;;
40501;SDS011;29631;49.168;9.848;2023-04-15T02:15:00;3.60;;;3.30;;
40501;SDS011;29631;49.168;9.848;2023-04-15T02:17:26;3.13;;;2.92;;
40501;SDS011;29631;49.168;9.848;2023-04-15T02:19:52;3.15;;;2.95;;
40501;SDS011;29631;49.168;9.848;2023-04-15T02:22:20;3.97;;;3.35;;
40501;SDS011;29631;49.168;9.848;2023-04-15T02:24:46;3.55;;;3.33;;
40501;SDS011;29631;49.168;9.848;2023-04-15T02:27:15;3.85;;;3.55;;
40501;SDS011;29631;49.168;9.848;2023-04-15T02:29:42;3.30;;;3.05;;
40501;SDS011;29631;49.168;9.848;2023-04-15T02:32:09;3.42;;;3.22;;
40501;SDS011;29631;49.168;9.848;2023-04-15T02:34:37;4.00;;;3.70;;
40501;SDS011;29631;49.168;9.848;2023-04-15T02:37:06;3.80;;;3.50;;
40501;SDS011;29631;49.168;9.848;2023-04-15T02:39:36;3.50;;;3.20;;
40501;SDS011;29631;49.168;9.848;2023-04-15T02:42:03;3.78;;;3.33;;
40501;SDS011;29631;49.168;9.848;2023-04-15T02:44:30;3.15;;;2.95;;
40501;SDS011;29631;49.168;9.848;2023-04-15T02:46:57;3.33;;;3.13;;
40501;SDS011;29631;49.168;9.848;2023-04-15T02:49:23;3.33;;;3.10;;
40501;SDS011;29631;49.168;9.848;2023-04-15T02:51:49;3.17;;;2.97;;
40501;SDS011;29631;49.168;9.848;2023-04-15T02:54:16;3.42;;;3.20;;
40501;SDS011;29631;49.168;9.848;2023-04-15T02:56:47;3.83;;;3.53;;
40501;SDS011;29631;49.168;9.848;2023-04-15T02:59:13;2.63;;;2.53;;
40501;SDS011;29631;49.168;9.848;2023-04-15T03:01:38;2.83;;;2.63;;
40501;SDS011;29631;49.168;9.848;2023-04-15T03:04:04;3.05;;;2.85;;
40501;SDS011;29631;49.168;9.848;2023-04-15T03:06:31;5.18;;;3.35;;
40501;SDS011;29631;49.168;9.848;2023-04-15T03:08:57;2.75;;;2.55;;
40501;SDS011;29631;49.168;9.848;2023-04-15T03:11:24;3.33;;;3.13;;
40501;SDS011;29631;49.168;9.848;2023-04-15T03:13:51;2.88;;;2.67;;
40501;SDS011;29631;49.168;9.848;2023-04-15T03:16:17;3.45;;;2.95;;
40501;SDS011;29631;49.168;9.848;2023-04-15T03:18:42;2.75;;;2.60;;
40501;SDS011;29631;49.168;9.848;2023-04-15T03:21:08;2.80;;;2.70;;
40501;SDS011;29631;49.168;9.848;2023-04-15T03:23:34;2.95;;;2.75;;
40501;SDS011;29631;49.168;9.848;2023-04-15T03:26:03;2.90;;;2.80;;
40501;SDS011;29631;49.168;9.848;2023-04-15T03:28:29;3.70;;;3.03;;
40501;SDS011;29631;49.168;9.848;2023-04-15T03:30:56;2.90;;;2.72;;
40501;SDS011;29631;49.168;9.848;2023-04-15T03:33:23;3.75;;;3.00;;
40501;SDS011;29631;49.168;9.848;2023-04-15T03:35:49;3.13;;;2.92;;
40501;SDS011;29631;49.168;9.848;2023-04-15T03:38:15;3.35;;;3.13;;
40501;SDS011;29631;49.168;9.848;2023-04-15T03:40:42;3.47;;;3.17;;
40501;SDS011;29631;49.168;9.848;2023-04-15T03:43:08;3.47;;;3.17;;
40501;SDS011;29631;49.168;9.848;2023-04-15T03:45:33;3.35;;;3.05;;
40501;SDS011;29631;49.168;9.848;2023-04-15T03:47:59;3.33;;;3.13;;
40501;SDS011;29631;49.168;9.848;2023-04-15T03:50:25;3.58;;;3.28;;
40501;SDS011;29631;49.168;9.848;2023-04-15T03:52:51;3.50;;;3.30;;
40501;SDS011;29631;49.168;9.848;2023-04-15T03:55:17;3.22;;;3.03;;
40501;SDS011;29631;49.168;9.848;2023-04-15T03:57:44;3.83;;;3.50;;
40501;SDS011;29631;49.168;9.848;2023-04-15T04:00:10;3.30;;;3.10;;
40501;SDS011;29631;49.168;9.848;2023-04-15T04:02:36;3.38;;;3.17;;
40501;SDS011;29631;49.168;9.848;2023-04-15T04:05:02;3.15;;;2.95;;
40501;SDS011;29631;49.168;9.848;2023-04-15T04:07:28;3.30;;;3.10;;
40501;SDS011;29631;49.168;9.848;2023-04-15T04:09:55;2.90;;;2.70;;
40501;SDS011;29631;49.168;9.848;2023-04-15T04:12:21;3.10;;;2.90;;
40501;SDS011;29631;49.168;9.848;2023-04-15T04:14:47;2.60;;;2.50;;
40501;SDS011;29631;49.168;9.848;2023-04-15T04:17:13;3.83;;;3.10;;
40501;SDS011;29631;49.168;9.848;2023-04-15T04:19:39;2.55;;;2.40;;
40501;SDS011;29631;49.168;9.848;2023-04-15T04:22:05;2.33;;;2.13;;
40501;SDS011;29631;49.168;9.848;2023-04-15T04:24:30;2.72;;;2.47;;
40501;SDS011;29631;49.168;9.848;2023-04-15T04:26:56;2.25;;;2.15;;
40501;SDS011;29631;49.168;9.848;2023-04-15T04:29:22;2.58;;;2.42;;
40501;SDS011;29631;49.168;9.848;2023-04-15T04:31:48;3.25;;;3.05;;
40501;SDS011;29631;49.168;9.848;2023-04-15T04:34:14;2.78;;;2.58;;
40501;SDS011;29631;49.168;9.848;2023-04-15T04:36:40;2.58;;;2.40;;
40501;SDS011;29631;49.168;9.848;2023-04-15T04:39:06;2.83;;;2.72;;
40501;SDS011;29631;49.168;9.848;2023-04-15T04:41:31;3.00;;;2.80;;
40501;SDS011;29631;49.168;9.848;2023-04-15T04:43:57;3.10;;;2.90;;
40501;SDS011;29631;49.168;9.848;2023-04-15T04:46:23;2.72;;;2.63;;
40501;SDS011;29631;49.168;9.848;2023-04-15T04:48:49;2.92;;;2.70;;
40501;SDS011;29631;49.168;9.848;2023-04-15T04:51:15;3.03;;;2.92;;
40501;SDS011;29631;49.168;9.848;2023-04-15T04:53:41;2.70;;;2.50;;
40501;SDS011;29631;49.168;9.848;2023-04-15T04:56:07;4.13;;;2.30;;
40501;SDS011;29631;49.168;9.848;2023-04-15T04:58:33;3.13;;;2.20;;
40501;SDS011;29631;49.168;9.848;2023-04-15T05:00:59;2.35;;;2.00;;
40501;SDS011;29631;49.168;9.848;2023-04-15T05:03:24;2.33;;;2.22;;
40501;SDS011;29631;49.168;9.848;2023-04-15T05:05:51;2.65;;;2.55;;
40501;SDS011;29631;49.168;9.848;2023-04-15T05:08:17;2.42;;;2.33;;
40501;SDS011;29631;49.168;9.848;2023-04-15T05:10:42;2.92;;;2.65;;
40501;SDS011;29631;49.168;9.848;2023-04-15T05:13:08;2.78;;;2.60;;
40501;SDS011;29631;49.168;9.848;2023-04-15T05:15:34;2.70;;;2.58;;
40501;SDS011;29631;49.168;9.848;2023-04-15T05:18:03;2.53;;;2.42;;
40501;SDS011;29631;49.168;9.848;2023-04-15T05:20:29;2.80;;;2.60;;
40501;SDS011;29631;49.168;9.848;2023-04-15T05:22:55;3.13;;;2.92;;
40501;SDS011;29631;49.168;9.848;2023-04-15T05:25:21;3.15;;;2.80;;
40501;SDS011;29631;49.168;9.848;2023-04-15T05:27:47;2.72;;;2.55;;
40501;SDS011;29631;49.168;9.848;2023-04-15T05:30:12;2.85;;;2.67;;
40501;SDS011;29631;49.168;9.848;2023-04-15T05:32:38;3.30;;;2.90;;
40501;SDS011;29631;49.168;9.848;2023-04-15T05:35:04;3.00;;;2.80;;
40501;SDS011;29631;49.168;9.848;2023-04-15T05:37:30;3.10;;;2.95;;
40501;SDS011;29631;49.168;9.848;2023-04-15T05:39:56;3.28;;;3.08;;
40501;SDS011;29631;49.168;9.848;2023-04-15T05:42:22;3.85;;;3.50;;
40501;SDS011;29631;49.168;9.848;2023-04-15T05:44:47;29.70;;;27.35;;
40501;SDS011;29631;49.168;9.848;2023-04-15T05:47:13;19.02;;;17.83;;
40501;SDS011;29631;49.168;9.848;2023-04-15T05:49:39;9.70;;;9.10;;
40501;SDS011;29631;49.168;9.848;2023-04-15T05:52:05;5.85;;;5.55;;
40501;SDS011;29631;49.168;9.848;2023-04-15T05:54:31;4.50;;;4.20;;
40501;SDS011;29631;49.168;9.848;2023-04-15T05:56:57;3.70;;;3.40;;
40501;SDS011;29631;49.168;9.848;2023-04-15T05:59:22;3.50;;;3.20;;
40501;SDS011;29631;49.168;9.848;2023-04-15T06:01:48;3.63;;;3.33;;
40501;SDS011;29631;49.168;9.848;2023-04-15T06:04:15;3.30;;;2.92;;
40501;SDS011;29631;49.168;9.848;2023-04-15T06:06:41;3.42;;;3.10;;
40501;SDS011;29631;49.168;9.848;2023-04-15T06:09:07;3.25;;;3.03;;
40501;SDS011;29631;49.168;9.848;2023-04-15T06:11:33;2.90;;;2.70;;
40501;SDS011;29631;49.168;9.848;2023-04-15T06:13:59;3.13;;;2.88;;
40501;SDS011;29631;49.168;9.848;2023-04-15T06:16:24;3.45;;;3.25;;
40501;SDS011;29631;49.168;9.848;2023-04-15T06:18:51;3.30;;;3.10;;
40501;SDS011;29631;49.168;9.848;2023-04-15T06:21:16;3.85;;;2.88;;
40501;SDS011;29631;49.168;9.848;2023-04-15T06:23:42;2.85;;;2.67;;
40501;SDS011;29631;49.168;9.848;2023-04-15T06:26:08;3.20;;;2.78;;
40501;SDS011;29631;49.168;9.848;2023-04-15T06:28:34;2.92;;;2.72;;
40501;SDS011;29631;49.168;9.848;2023-04-15T06:31:00;3.50;;;2.67;;
40501;SDS011;29631;49.168;9.848;2023-04-15T06:33:26;2.92;;;2.75;;
40501;SDS011;29631;49.168;9.848;2023-04-15T06:35:52;5.20;;;4.70;;
40501;SDS011;29631;49.168;9.848;2023-04-15T06:38:17;4.00;;;3.60;;
40501;SDS011;29631;49.168;9.848;2023-04-15T06:40:43;4.18;;;3.65;;
40501;SDS011;29631;49.168;9.848;2023-04-15T06:43:10;3.47;;;3.28;;
40501;SDS011;29631;49.168;9.848;2023-04-15T06:45:35;7.18;;;6.50;;
40501;SDS011;29631;49.168;9.848;2023-04-15T06:48:01;244.75;;;83.10;;
40501;SDS011;29631;49.168;9.848;2023-04-15T06:50:27;254.65;;;107.88;;
40501;SDS011;29631;49.168;9.848;2023-04-15T06:52:53;71.82;;;37.03;;
40501;SDS011;29631;49.168;9.848;2023-04-15T06:55:20;29.55;;;18.17;;
40501;SDS011;29631;49.168;9.848;2023-04-15T06:57:46;14.55;;;9.05;;
40501;SDS011;29631;49.168;9.848;2023-04-15T07:00:12;8.38;;;5.65;;
40501;SDS011;29631;49.168;9.848;2023-04-15T07:02:38;4.32;;;3.92;;
40501;SDS011;29631;49.168;9.848;2023-04-15T07:05:05;4.43;;;3.53;;
40501;SDS011;29631;49.168;9.848;2023-04-15T07:07:31;4.75;;;3.30;;
40501;SDS011;29631;49.168;9.848;2023-04-15T07:09:57;2.97;;;2.78;;
40501;SDS011;29631;49.168;9.848;2023-04-15T07:12:23;3.20;;;2.85;;
40501;SDS011;29631;49.168;9.848;2023-04-15T07:14:48;3.30;;;3.10;;
40501;SDS011;29631;49.168;9.848;2023-04-15T07:17:14;3.38;;;2.88;;
40501;SDS011;29631;49.168;9.848;2023-04-15T07:19:40;15.93;;;12.88;;
40501;SDS011;29631;49.168;9.848;2023-04-15T07:22:06;16.98;;;15.68;;
40501;SDS011;29631;49.168;9.848;2023-04-15T07:24:32;8.75;;;8.05;;
40501;SDS011;29631;49.168;9.848;2023-04-15T07:26:57;5.50;;;5.10;;
40501;SDS011;29631;49.168;9.848;2023-04-15T07:29:23;4.05;;;3.75;;
40501;SDS011;29631;49.168;9.848;2023-04-15T07:31:50;3.40;;;3.13;;
40501;SDS011;29631;49.168;9.848;2023-04-15T07:34:16;3.22;;;3.03;;
40501;SDS011;29631;49.168;9.848;2023-04-15T07:36:43;3.53;;;3.22;;
40501;SDS011;29631;49.168;9.848;2023-04-15T07:39:09;3.28;;;2.97;;
40501;SDS011;29631;49.168;9.848;2023-04-15T07:41:35;3.30;;;3.00;;
40501;SDS011;29631;49.168;9.848;2023-04-15T07:44:02;4.65;;;3.47;;
40501;SDS011;29631;49.168;9.848;2023-04-15T07:46:27;3.63;;;3.33;;
40501;SDS011;29631;49.168;9.848;2023-04-15T07:48:53;3.63;;;3.33;;
40501;SDS011;29631;49.168;9.848;2023-04-15T07:51:20;3.30;;;3.08;;
40501;SDS011;29631;49.168;9.848;2023-04-15T07:53:46;3.22;;;2.88;;
40501;SDS011;29631;49.168;9.848;2023-04-15T07:56:14;3.83;;;3.17;;
40501;SDS011;29631;49.168;9.848;2023-04-15T07:58:40;3.20;;;2.85;;
40501;SDS011;29631;49.168;9.848;2023-04-15T08:01:06;3.05;;;2.80;;
40501;SDS011;29631;49.168;9.848;2023-04-15T08:03:32;3.10;;;2.90;;
40501;SDS011;29631;49.168;9.848;2023-04-15T08:05:58;3.30;;;3.10;;
40501;SDS011;29631;49.168;9.848;2023-04-15T08:08:24;2.97;;;2.78;;
40501;SDS011;29631;49.168;9.848;2023-04-15T08:10:50;2.97;;;2.75;;
40501;SDS011;29631;49.168;9.848;2023-04-15T08:13:16;3.17;;;2.95;;
40501;SDS011;29631;49.168;9.848;2023-04-15T08:15:42;5.35;;;3.35;;
40501;SDS011;29631;49.168;9.848;2023-04-15T08:18:08;3.05;;;2.80;;
40501;SDS011;29631;49.168;9.848;2023-04-15T08:20:35;3.97;;;3.08;;
40501;SDS011;29631;49.168;9.848;2023-04-15T08:23:01;3.10;;;2.80;;
40501;SDS011;29631;49.168;9.848;2023-04-15T08:25:27;3.22;;;3.00;;
40501;SDS011;29631;49.168;9.848;2023-04-15T08:27:56;3.40;;;3.00;;
40501;SDS011;29631;49.168;9.848;2023-04-15T08:30:22;5.63;;;2.95;;
40501;SDS011;29631;49.168;9.848;2023-04-15T08:32:47;3.45;;;3.10;;
40501;SDS011;29631;49.168;9.848;2023-04-15T08:35:15;3.78;;;3.30;;
40501;SDS011;29631;49.168;9.848;2023-04-15T08:37:40;3.83;;;3.47;;
40501;SDS011;29631;49.168;9.848;2023-04-15T08:40:06;3.38;;;3.10;;
40501;SDS011;29631;49.168;9.848;2023-04-15T08:42:40;4.30;;;3.50;;
40501;SDS011;29631;49.168;9.848;2023-04-15T08:45:12;2.72;;;2.47;;
40501;SDS011;29631;49.168;9.848;2023-04-15T08:47:37;3.55;;;3.30;;
40501;SDS011;29631;49.168;9.848;2023-04-15T08:50:07;3.95;;;3.65;;
40501;SDS011;29631;49.168;9.848;2023-04-15T08:52:34;4.10;;;3.72;;
40501;SDS011;29631;49.168;9.848;2023-04-15T08:55:01;3.80;;;3.60;;
40501;SDS011;29631;49.168;9.848;2023-04-15T08:57:28;3.00;;;2.80;;
40501;SDS011;29631;49.168;9.848;2023-04-15T08:59:55;3.55;;;3.03;;
40501;SDS011;29631;49.168;9.848;2023-04-15T09:02:21;3.25;;;3.05;;
40501;SDS011;29631;49.168;9.848;2023-04-15T09:04:50;3.42;;;2.83;;
40501;SDS011;29631;49.168;9.848;2023-04-15T09:07:15;3.10;;;2.78;;
40501;SDS011;29631;49.168;9.848;2023-04-15T09:09:41;3.20;;;2.97;;
40501;SDS011;29631;49.168;9.848;2023-04-15T09:12:07;4.50;;;3.58;;
40501;SDS011;29631;49.168;9.848;2023-04-15T09:14:34;3.38;;;3.13;;
40501;SDS011;29631;49.168;9.848;2023-04-15T09:17:03;3.20;;;3.00;;
40501;SDS011;29631;49.168;9.848;2023-04-15T09:19:29;3.45;;;3.15;;
40501;SDS011;29631;49.168;9.848;2023-04-15T09:21:58;3.33;;;3.05;;
40501;SDS011;29631;49.168;9.848;2023-04-15T09:24:24;3.63;;;3.35;;
40501;SDS011;29631;49.168;9.848;2023-04-15T09:26:57;4.47;;;2.95;;
40501;SDS011;29631;49.168;9.848;2023-04-15T09:29:24;3.55;;;3.22;;
40501;SDS011;29631;49.168;9.848;2023-04-15T09:31:50;3.35;;;3.15;;
40501;SDS011;29631;49.168;9.848;2023-04-15T09:34:17;3.58;;;3.28;;
40501;SDS011;29631;49.168;9.848;2023-04-15T09:39:13;3.38;;;3.08;;
40501;SDS011;29631;49.168;9.848;2023-04-15T09:41:39;3.63;;;3.20;;
40501;SDS011;29631;49.168;9.848;2023-04-15T09:44:05;3.15;;;2.95;;
40501;SDS011;29631;49.168;9.848;2023-04-15T09:46:41;3.67;;;3.08;;
40501;SDS011;29631;49.168;9.848;2023-04-15T09:49:08;3.22;;;3.03;;
40501;SDS011;29631;49.168;9.848;2023-04-15T09:51:36;3.90;;;3.50;;
40501;SDS011;29631;49.168;9.848;2023-04-15T09:54:02;3.47;;;3.28;;
40501;SDS011;29631;49.168;9.848;2023-04-15T09:56:35;3.50;;;3.30;;
40501;SDS011;29631;49.168;9.848;2023-04-15T09:59:05;3.30;;;3.10;;
40501;SDS011;29631;49.168;9.848;2023-04-15T10:01:32;3.13;;;2.92;;
40501;SDS011;29631;49.168;9.848;2023-04-15T10:04:00;3.00;;;2.80;;
40501;SDS011;29631;49.168;9.848;2023-04-15T10:06:28;3.58;;;3.30;;
40501;SDS011;29631;49.168;9.848;2023-04-15T10:08:54;4.47;;;4.10;;
40501;SDS011;29631;49.168;9.848;2023-04-15T10:11:22;3.78;;;3.58;;
40501;SDS011;29631;49.168;9.848;2023-04-15T10:13:52;3.83;;;3.53;;
40501;SDS011;29631;49.168;9.848;2023-04-15T10:16:20;4.85;;;4.35;;
40501;SDS011;29631;49.168;9.848;2023-04-15T10:18:49;5.40;;;4.90;;
40501;SDS011;29631;49.168;9.848;2023-04-15T10:21:22;5.88;;;5.38;;
40501;SDS011;29631;49.168;9.848;2023-04-15T10:23:48;5.57;;;4.88;;
40501;SDS011;29631;49.168;9.848;2023-04-15T10:26:15;5.90;;;5.40;;
40501;SDS011;29631;49.168;9.848;2023-04-15T10:28:42;4.75;;;4.22;;
40501;SDS011;29631;49.168;9.848;2023-04-15T10:31:12;4.40;;;4.10;;
40501;SDS011;29631;49.168;9.848;2023-04-15T10:33:42;4.55;;;4.20;;
40501;SDS011;29631;49.168;9.848;2023-04-15T10:36:10;3.65;;;3.35;;
40501;SDS011;29631;49.168;9.848;2023-04-15T10:38:37;3.60;;;3.30;;
40501;SDS011;29631;49.168;9.848;2023-04-15T10:41:14;3.75;;;3.45;;
40501;SDS011;29631;49.168;9.848;2023-04-15T10:46:20;3.22;;;3.13;;
40501;SDS011;29631;49.168;9.848;2023-04-15T10:49:08;3.22;;;3.03;;
40501;SDS011;29631;49.168;9.848;2023-04-15T10:51:51;2.90;;;2.70;;
40501;SDS011;29631;49.168;9.848;2023-04-15T10:56:50;2.90;;;2.70;;
40501;SDS011;29631;49.168;9.848;2023-04-15T11:05:21;2.28;;;2.17;;
40501;SDS011;29631;49.168;9.848;2023-04-15T11:08:08;3.57;;;2.37;;
40501;SDS011;29631;49.168;9.848;2023-04-15T11:13:25;2.30;;;2.20;;
40501;SDS011;29631;49.168;9.848;2023-04-15T11:15:54;1.95;;;1.85;;
40501;SDS011;29631;49.168;9.848;2023-04-15T11:18:23;2.22;;;2.13;;
40501;SDS011;29631;49.168;9.848;2023-04-15T11:20:52;2.28;;;2.17;;
40501;SDS011;29631;49.168;9.848;2023-04-15T11:23:37;2.20;;;2.00;;
40501;SDS011;29631;49.168;9.848;2023-04-15T11:26:08;1.80;;;1.58;;
40501;SDS011;29631;49.168;9.848;2023-04-15T11:28:37;3.22;;;2.00;;
40501;SDS011;29631;49.168;9.848;2023-04-15T11:31:12;2.00;;;1.80;;
40501;SDS011;29631;49.168;9.848;2023-04-15T11:33:59;1.40;;;1.40;;
40501;SDS011;29631;49.168;9.848;2023-04-15T11:36:27;2.83;;;1.60;;
40501;SDS011;29631;49.168;9.848;2023-04-15T11:38:56;1.88;;;1.77;;
40501;SDS011;29631;49.168;9.848;2023-04-15T11:41:23;1.60;;;1.50;;
40501;SDS011;29631;49.168;9.848;2023-04-15T11:43:50;1.90;;;1.80;;
40501;SDS011;29631;49.168;9.848;2023-04-15T11:46:16;1.83;;;1.73;;
40501;SDS011;29631;49.168;9.848;2023-04-15T11:48:43;1.70;;;1.70;;
40501;SDS011;29631;49.168;9.848;2023-04-15T11:51:11;1.67;;;1.55;;
40501;SDS011;29631;49.168;9.848;2023-04-15T11:56:18;1.45;;;1.38;;
40501;SDS011;29631;49.168;9.848;2023-04-15T11:58:46;2.05;;;1.55;;
40501;SDS011;29631;49.168;9.848;2023-04-15T12:01:14;1.27;;;0.98;;
40501;SDS011;29631;49.168;9.848;2023-04-15T12:03:41;1.30;;;1.30;;
40501;SDS011;29631;49.168;9.848;2023-04-15T12:06:31;1.25;;;1.25;;
40501;SDS011;29631;49.168;9.848;2023-04-15T12:16:41;1.10;;;1.10;;
40501;SDS011;29631;49.168;9.848;2023-04-15T12:19:10;13.82;;;1.80;;
40501;SDS011;29631;49.168;9.848;2023-04-15T12:21:39;2.80;;;1.35;;
40501;SDS011;29631;49.168;9.848;2023-04-15T12:24:09;2.65;;;1.10;;
40501;SDS011;29631;49.168;9.848;2023-04-15T12:26:43;1.45;;;1.40;;
40501;SDS011;29631;49.168;9.848;2023-04-15T12:29:12;1.35;;;1.17;;
40501;SDS011;29631;49.168;9.848;2023-04-15T12:31:53;1.20;;;1.20;;
40501;SDS011;29631;49.168;9.848;2023-04-15T12:34:25;1.65;;;1.48;;
40501;SDS011;29631;49.168;9.848;2023-04-15T12:36:51;3.28;;;3.00;;
40501;SDS011;29631;49.168;9.848;2023-04-15T12:39:20;5.40;;;4.97;;
40501;SDS011;29631;49.168;9.848;2023-04-15T12:41:51;5.38;;;3.83;;
40501;SDS011;29631;49.168;9.848;2023-04-15T12:44:17;2.80;;;2.60;;
40501;SDS011;29631;49.168;9.848;2023-04-15T12:46:43;1.55;;;1.55;;
40501;SDS011;29631;49.168;9.848;2023-04-15T12:49:10;3.25;;;1.40;;
40501;SDS011;29631;49.168;9.848;2023-04-15T12:51:36;1.30;;;1.30;;
40501;SDS011;29631;49.168;9.848;2023-04-15T12:54:01;1.23;;;1.23;;
40501;SDS011;29631;49.168;9.848;2023-04-15T12:56:27;1.17;;;1.17;;
40501;SDS011;29631;49.168;9.848;2023-04-15T12:58:53;1.30;;;1.30;;
40501;SDS011;29631;49.168;9.848;2023-04-15T13:01:19;1.67;;;1.58;;
40501;SDS011;29631;49.168;9.848;2023-04-15T13:03:45;1.80;;;1.70;;
40501;SDS011;29631;49.168;9.848;2023-04-15T13:06:11;1.58;;;1.40;;
40501;SDS011;29631;49.168;9.848;2023-04-15T13:08:37;1.30;;;1.30;;
40501;SDS011;29631;49.168;9.848;2023-04-15T13:11:03;1.20;;;1.20;;
40501;SDS011;29631;49.168;9.848;2023-04-15T13:13:29;1.20;;;1.20;;
40501;SDS011;29631;49.168;9.848;2023-04-15T13:15:56;1.48;;;1.38;;
40501;SDS011;29631;49.168;9.848;2023-04-15T13:18:22;1.95;;;1.85;;
40501;SDS011;29631;49.168;9.848;2023-04-15T13:20:48;4.10;;;1.50;;
40501;SDS011;29631;49.168;9.848;2023-04-15T13:23:15;1.30;;;1.30;;
40501;SDS011;29631;49.168;9.848;2023-04-15T13:25:41;1.10;;;1.10;;
40501;SDS011;29631;49.168;9.848;2023-04-15T13:28:07;0.90;;;0.90;;
40501;SDS011;29631;49.168;9.848;2023-04-15T13:30:37;1.67;;;1.58;;
40501;SDS011;29631;49.168;9.848;2023-04-15T13:33:04;1.55;;;1.55;;
40501;SDS011;29631;49.168;9.848;2023-04-15T13:35:31;1.52;;;1.42;;
40501;SDS011;29631;49.168;9.848;2023-04-15T13:37:56;1.40;;;1.35;;
40501;SDS011;29631;49.168;9.848;2023-04-15T13:40:22;1.70;;;1.60;;
40501;SDS011;29631;49.168;9.848;2023-04-15T13:42:49;1.23;;;1.23;;
40501;SDS011;29631;49.168;9.848;2023-04-15T13:45:17;1.20;;;1.20;;
40501;SDS011;29631;49.168;9.848;2023-04-15T13:47:43;1.23;;;1.23;;
40501;SDS011;29631;49.168;9.848;2023-04-15T13:50:08;1.30;;;1.17;;
40501;SDS011;29631;49.168;9.848;2023-04-15T13:52:35;1.35;;;1.20;;
40501;SDS011;29631;49.168;9.848;2023-04-15T13:55:01;1.50;;;1.40;;
40501;SDS011;29631;49.168;9.848;2023-04-15T13:57:28;1.60;;;1.50;;
40501;SDS011;29631;49.168;9.848;2023-04-15T13:59:54;1.95;;;1.70;;
40501;SDS011;29631;49.168;9.848;2023-04-15T14:02:20;1.48;;;1.48;;
40501;SDS011;29631;49.168;9.848;2023-04-15T14:04:47;1.25;;;1.20;;
40501;SDS011;29631;49.168;9.848;2023-04-15T14:07:12;1.10;;;1.10;;
40501;SDS011;29631;49.168;9.848;2023-04-15T14:09:38;1.35;;;1.35;;
40501;SDS011;29631;49.168;9.848;2023-04-15T14:12:04;2.15;;;1.95;;
40501;SDS011;29631;49.168;9.848;2023-04-15T14:14:30;1.98;;;1.88;;
40501;SDS011;29631;49.168;9.848;2023-04-15T14:16:56;4.97;;;4.47;;
40501;SDS011;29631;49.168;9.848;2023-04-15T14:19:22;9.18;;;8.32;;
40501;SDS011;29631;49.168;9.848;2023-04-15T14:21:48;9.15;;;8.23;;
40501;SDS011;29631;49.168;9.848;2023-04-15T14:24:14;6.10;;;5.60;;
40501;SDS011;29631;49.168;9.848;2023-04-15T14:26:41;2.75;;;2.65;;
40501;SDS011;29631;49.168;9.848;2023-04-15T14:29:08;1.80;;;1.70;;
40501;SDS011;29631;49.168;9.848;2023-04-15T14:31:34;1.35;;;1.35;;
40501;SDS011;29631;49.168;9.848;2023-04-15T14:34:00;1.30;;;1.30;;
40501;SDS011;29631;49.168;9.848;2023-04-15T14:36:26;1.23;;;1.20;;
40501;SDS011;29631;49.168;9.848;2023-04-15T14:38:52;1.40;;;1.40;;
40501;SDS011;29631;49.168;9.848;2023-04-15T14:41:18;1.30;;;1.30;;
40501;SDS011;29631;49.168;9.848;2023-04-15T14:43:44;1.30;;;1.30;;
40501;SDS011;29631;49.168;9.848;2023-04-15T14:46:09;1.10;;;1.10;;
40501;SDS011;29631;49.168;9.848;2023-04-15T14:48:35;1.13;;;1.13;;
40501;SDS011;29631;49.168;9.848;2023-04-15T14:51:01;0.98;;;0.98;;
40501;SDS011;29631;49.168;9.848;2023-04-15T14:53:27;1.00;;;1.00;;
40501;SDS011;29631;49.168;9.848;2023-04-15T14:55:53;1.10;;;1.10;;
40501;SDS011;29631;49.168;9.848;2023-04-15T14:58:18;1.38;;;1.23;;
40501;SDS011;29631;49.168;9.848;2023-04-15T15:00:44;1.30;;;1.30;;
40501;SDS011;29631;49.168;9.848;2023-04-15T15:03:10;1.00;;;1.00;;
40501;SDS011;29631;49.168;9.848;2023-04-15T15:05:43;1.00;;;1.00;;
40501;SDS011;29631;49.168;9.848;2023-04-15T15:08:11;0.90;;;0.90;;
40501;SDS011;29631;49.168;9.848;2023-04-15T15:10:38;0.98;;;0.98;;
40501;SDS011;29631;49.168;9.848;2023-04-15T15:13:06;0.75;;;0.75;;
40501;SDS011;29631;49.168;9.848;2023-04-15T15:15:34;1.10;;;1.10;;